La Push, Washington
Current Conditions -  °F | °C
As of 11:53 PM on Wednesday 17 Dec 2014 (Local Time) from KUIL Reporting Station
Overcast Overcast  
Wind Chill: 45°   Ceiling: 2600
Heat Index: 45°   Visibility: 8mi
Dew Point: 44°   Wind: 0mph
Humidity: 97%   Direction: NA
Pressure: 29.89"   Gusts: NA
Location:  47.91°N, 124.64°W
Report Text: KUIL 180753Z AUTO 00000KT 8SM FEW017 BKN026 OVC050 07/07 A2989 RMK AO2 SLP123 T00720067 400940067
Loading
Personal Weather Stations






























Interactive Weather Map New forecast layout! Learn more

10-Day Weather Forecast

Advertisements
Track Severe Weather on mobile